100LL.CA
Aviation Fuel Pricing for Canadians
Please upgrade your browser - Tested with IE9, FireFox, Chrome, Safari

Fuel Airports Other Help
Prices Economy Info List METAR/TAF Kneeboard Help

Enter a list of
Airport Idents:
Sort Method: As Entered    By Ident   

CYVR
METAR CYVR 210400Z 06009KT 10SM -RA BKN044 OVC061 09/07 A3012 RMK SC7NS1 SLP202
TAF CYVR 210238Z 2103/2206 VRB03KT P6SM -RA FEW020 BKN040 OVC060 FM210600 07008KT P6SM -RA SCT015 OVC040 TEMPO 2106/2112 6SM -SHRA BR FEW007 BKN015 OVC040 BECMG 2110/2112 21015G25KT FM211200 23015G25KT P6SM BKN060 FM211800 27012G22KT P6SM SCT060 BECMG 2120/2122 23008KT BECMG 2201/2203 09008KT RMK NXT FCST BY 210600Z
CYXX
METAR CYXX 210400Z 12003KT 070V140 8SM -RA SCT041 OVC053 10/06 A3015 RMK SC4NS4 SLP212
TAF CYXX 202338Z 2100/2124 24008KT P6SM SCT050 OVC090 TEMPO 2100/2102 P6SM -RA BKN050 OVC090 FM210200 20008KT P6SM -RA SCT020 BKN050 OVC070 FM210900 20012G22KT P6SM SCT020 OVC030 TEMPO 2109/2115 5SM -RA BR BKN020 OVC030 FM211500 20012G22KT P6SM -SHRA BKN050 RMK NXT FCST BY 210600Z
KBLI
METAR KBLI 210353Z 13007KT 10SM -RA OVC048 10/07 A3013 RMK AO2 SLP210 P0002 T01000067
TAF KBLI 202320Z 2100/2124 19008KT P6SM OVC080 FM210500 18012KT P6SM -RA OVC050 FM210900 18015G25KT P6SM -RA BKN025 OVC050 FM211200 18012G22KT P6SM -SHRA BKN020 BKN040 FM211600 23012KT P6SM -SHRA SCT030 BKN050 FM212000 23012KT P6SM BKN050


Please Send Updates!

Desktop Version ]  [ Mobile Version ]  [ Disclaimer ]